Lingle, WY (82223)

5:06 PM MDT on May 22, 2017 (GMT -0600)
Rawhide Subdivision | | Change Station

Elev 4112 ft 42.08 °N, 104.23 °W | Updated 1 second ago

Partly Cloudy
Partly Cloudy
55.1 °F
Feels Like 55.1 °F
N
12.0
Wind Variable Wind from WNW

Today
High -- | Low -- °F
--% Chance of Precip.
Yesterday
High -- | Low -- °F
Precip. -- in
Pressure 30.11 in
Visibility 10.0 miles
Clouds Few 3400 ft
Few 4500 ft
Dew Point 40 °F
Humidity 56%
Rainfall 0.00 in
Snow Depth Not available.
5:30 AM 8:18 PM
Waning Crescent, 12% visible
METAR KTOR 222253Z AUTO 33016G28KT 10SM FEW034 FEW045 11/02 A3012 RMK AO2 PK WND 34028/2249 SLP195 T01110022
Pressure 30.11 in
Visibility 10.0 miles
Clouds Few 3400 ft
Few 4500 ft
Dew Point 40 °F
Humidity 56%
Rainfall 0.00 in
Snow Depth Not available.
5:30 AM 8:18 PM
Waning Crescent, 12% visible
METAR KTOR 222253Z AUTO 33016G28KT 10SM FEW034 FEW045 11/02 A3012 RMK AO2 PK WND 34028/2249 SLP195 T01110022

Get Severe Weather Alerts

Thanks for signing up!

Be on the lookout for a verification email in your inbox.

You'll start receiving the daily forecast at 6 AM.

×

10-Day Weather Forecast

Almanac

Astronomy

May. 22, 2017 Rise Set
Actual Time
Civil Twilight
Nautical Twilight
Astronomical Twilight
Moon
Length of Visible Light
Length of Day
Tomorrow will be .
, % of the Moon is Illuminated

Today's Extremes

State Highs State Lows

Community

WunderPhotos

Category 6

Welcome to Category 6. This is the collective home for Weather Underground's featured writeups by Dr. Jeff Masters (right), Bob Henson (left), Chris Burt, and other regular contributors.

Nearby

Air Quality

  Air Quality AQ Index Pollutant
Not available.

Snow Depth

Station Depth Elevation

Earthquake Activity

City Distance Mag. Time & Date
Minimum magnitude displayed is 2.5.

Coastal Water Temperatures

Place Temperature

Stations

Nearby Weather Stations

Station Location Temp. Windchill Dew Point Humidity Wind Precip. Elev Updated Type
                   

Watches & Warnings

There are currently no watches in effect.